createdAt,value
2023-02-27T00:02:11.682Z,53.88
2023-02-27T00:04:41.166Z,53.42
2023-02-27T00:07:08.804Z,55.36
2023-02-27T00:09:35.270Z,55.30
2023-02-27T00:12:02.363Z,53.38
2023-02-27T00:14:28.784Z,53.88
2023-02-27T00:16:55.228Z,53.97
2023-02-27T00:19:21.821Z,54.00
2023-02-27T00:21:48.260Z,54.35
2023-02-27T00:24:14.660Z,54.33
2023-02-27T00:26:41.065Z,54.51
2023-02-27T00:29:07.965Z,54.92
2023-02-27T00:31:34.835Z,54.27
2023-02-27T00:34:01.345Z,54.54
2023-02-27T00:36:28.238Z,54.51
2023-02-27T00:38:54.698Z,54.75
2023-02-27T00:41:21.100Z,54.90
2023-02-27T00:43:47.537Z,55.04
2023-02-27T00:46:14.083Z,54.54
2023-02-27T00:48:40.569Z,55.49
2023-02-27T00:51:08.205Z,55.91
2023-02-27T00:53:37.535Z,55.38
2023-02-27T00:56:04.115Z,55.00
2023-02-27T00:58:30.543Z,56.15
2023-02-27T01:00:58.782Z,53.89
2023-02-27T01:03:26.712Z,54.26
2023-02-27T01:05:53.656Z,55.70
2023-02-27T01:08:20.750Z,54.64
2023-02-27T01:10:47.187Z,54.46
2023-02-27T01:13:13.635Z,54.99
2023-02-27T01:15:40.083Z,55.50
2023-02-27T01:18:08.507Z,54.09
2023-02-27T01:20:34.986Z,54.54
2023-02-27T01:23:01.486Z,54.36
2023-02-27T01:25:28.291Z,54.99
2023-02-27T01:27:55.092Z,54.41
2023-02-27T01:30:21.523Z,54.47
2023-02-27T01:32:48.147Z,53.59
2023-02-27T01:35:14.709Z,53.89
2023-02-27T01:37:41.207Z,54.47
2023-02-27T01:40:08.450Z,54.60
2023-02-27T01:42:34.974Z,55.12
2023-02-27T01:45:16.759Z,55.47
2023-02-27T01:47:44.146Z,55.52
2023-02-27T01:50:11.156Z,55.42
2023-02-27T01:52:37.600Z,55.42
2023-02-27T01:55:04.475Z,55.93
2023-02-27T01:57:30.901Z,55.48
2023-02-27T01:59:57.306Z,55.10
2023-02-27T02:02:25.102Z,55.32
2023-02-27T02:04:51.564Z,55.30
2023-02-27T02:07:19.671Z,54.32
2023-02-27T02:09:51.398Z,53.91
2023-02-27T02:12:18.422Z,54.98
2023-02-27T02:14:44.976Z,55.10
2023-02-27T02:17:18.008Z,55.37
2023-02-27T02:19:54.377Z,55.04
2023-02-27T02:22:26.997Z,55.11
2023-02-27T02:25:11.916Z,54.99
2023-02-27T02:27:57.391Z,55.24
2023-02-27T02:30:42.845Z,56.36
2023-02-27T02:33:15.154Z,56.07
2023-02-27T02:36:00.124Z,55.23
2023-02-27T02:38:26.534Z,55.13
2023-02-27T02:40:56.136Z,55.64
2023-02-27T02:43:40.209Z,55.35
2023-02-27T02:46:23.202Z,55.44
2023-02-27T02:48:57.201Z,55.28
2023-02-27T02:51:26.898Z,56.31
2023-02-27T02:53:53.379Z,55.37
2023-02-27T02:56:22.341Z,55.94
2023-02-27T02:58:51.814Z,55.33
2023-02-27T03:01:20.935Z,55.92
2023-02-27T03:03:55.055Z,56.17
2023-02-27T03:06:30.829Z,55.72
2023-02-27T03:09:07.872Z,56.00
2023-02-27T03:11:35.447Z,55.67
2023-02-27T03:14:05.377Z,56.07
2023-02-27T03:16:33.466Z,55.97
2023-02-27T03:19:02.752Z,56.20
2023-02-27T03:21:35.012Z,56.44
2023-02-27T03:24:03.373Z,56.70
2023-02-27T03:26:32.939Z,57.34
2023-02-27T03:29:01.167Z,56.63
2023-02-27T03:31:48.206Z,56.24
2023-02-27T03:34:14.666Z,55.68
2023-02-27T03:36:48.584Z,56.18
2023-02-27T03:39:27.196Z,56.31
2023-02-27T03:41:56.714Z,56.23
2023-02-27T03:44:40.691Z,55.90
2023-02-27T03:47:07.170Z,55.91
2023-02-27T03:49:33.894Z,56.75
2023-02-27T03:52:01.069Z,56.32
2023-02-27T03:54:28.440Z,55.72
2023-02-27T03:57:00.147Z,56.70
2023-02-27T03:59:26.925Z,56.00
2023-02-27T04:01:54.352Z,55.83
2023-02-27T04:04:21.104Z,56.06
2023-02-27T04:07:25.110Z,56.82
2023-02-27T04:10:18.090Z,56.02
2023-02-27T04:12:47.518Z,57.51
2023-02-27T04:15:31.402Z,57.48
2023-02-27T04:18:16.646Z,57.21
2023-02-27T04:21:06.126Z,57.01
2023-02-27T04:23:38.083Z,57.92
2023-02-27T04:26:23.371Z,56.05
2023-02-27T04:29:08.824Z,55.90
2023-02-27T04:31:44.194Z,57.25
2023-02-27T04:34:19.826Z,56.85
2023-02-27T04:36:47.955Z,57.42
2023-02-27T04:39:24.790Z,56.07
2023-02-27T04:41:55.774Z,56.86
2023-02-27T04:44:22.208Z,56.67
2023-02-27T04:46:48.843Z,56.80
2023-02-27T04:49:17.198Z,56.45
2023-02-27T04:51:51.237Z,56.26
2023-02-27T04:54:18.483Z,56.15
2023-02-27T04:56:45.939Z,56.98
2023-02-27T04:59:16.808Z,56.53
2023-02-27T05:02:02.641Z,57.56
2023-02-27T05:04:30.280Z,57.33
2023-02-27T05:06:57.050Z,56.76
2023-02-27T05:09:29.326Z,56.82
2023-02-27T05:12:03.679Z,56.96
2023-02-27T05:14:30.144Z,57.57
2023-02-27T05:17:00.525Z,56.94
2023-02-27T05:19:26.972Z,56.22
2023-02-27T05:21:56.157Z,56.13
2023-02-27T05:24:32.094Z,56.98
2023-02-27T05:27:07.763Z,57.10
2023-02-27T05:29:42.960Z,56.14
2023-02-27T05:32:19.880Z,56.14
2023-02-27T05:34:51.744Z,55.96
2023-02-27T05:37:20.592Z,56.66
2023-02-27T05:39:47.309Z,56.26
2023-02-27T05:42:17.557Z,57.02
2023-02-27T05:44:45.253Z,56.96
2023-02-27T05:47:13.631Z,56.46
2023-02-27T05:49:40.036Z,57.17
2023-02-27T05:52:08.000Z,56.75
2023-02-27T05:54:39.211Z,56.04
2023-02-27T05:57:07.551Z,57.19
2023-02-27T06:00:06.509Z,57.49
2023-02-27T06:02:38.576Z,56.26
2023-02-27T06:05:06.095Z,56.03
2023-02-27T06:07:33.329Z,56.62
2023-02-27T06:09:59.722Z,57.02
2023-02-27T06:12:26.120Z,57.46
2023-02-27T06:14:52.553Z,57.53
2023-02-27T06:17:19.008Z,57.18
2023-02-27T06:19:45.444Z,57.18
2023-02-27T06:22:11.856Z,56.88
2023-02-27T06:24:38.743Z,56.68
2023-02-27T06:27:05.226Z,57.40
2023-02-27T06:29:31.958Z,57.98
2023-02-27T06:31:58.448Z,56.58
2023-02-27T06:34:24.914Z,56.91
2023-02-27T06:36:51.381Z,56.43
2023-02-27T06:39:17.896Z,57.36
2023-02-27T06:41:44.371Z,57.03
2023-02-27T06:44:10.813Z,57.77
2023-02-27T06:46:37.325Z,57.06
2023-02-27T06:49:03.855Z,57.22
2023-02-27T06:51:30.590Z,56.91
2023-02-27T06:53:57.162Z,56.95
2023-02-27T06:56:23.694Z,57.03
2023-02-27T06:58:50.125Z,56.20
2023-02-27T07:01:16.836Z,55.76
2023-02-27T07:03:43.276Z,56.56
2023-02-27T07:06:10.021Z,56.53
2023-02-27T07:08:36.453Z,56.40
2023-02-27T07:11:02.892Z,56.18
2023-02-27T07:13:29.319Z,56.01
2023-02-27T07:15:55.813Z,56.20
2023-02-27T07:18:22.266Z,55.17
2023-02-27T07:20:51.819Z,55.98
2023-02-27T07:23:18.440Z,55.69
2023-02-27T07:25:46.312Z,55.42
2023-02-27T07:28:12.763Z,55.29
2023-02-27T07:30:39.181Z,55.24
2023-02-27T07:33:06.034Z,55.27
2023-02-27T07:35:32.572Z,54.46
2023-02-27T07:37:59.065Z,55.50
2023-02-27T07:40:25.526Z,54.99
2023-02-27T07:42:53.223Z,55.24
2023-02-27T07:45:19.798Z,54.38
2023-02-27T07:47:46.647Z,54.57
2023-02-27T07:50:14.085Z,54.16
2023-02-27T07:52:41.132Z,53.63
2023-02-27T07:55:07.949Z,53.66
2023-02-27T07:57:34.893Z,53.15
2023-02-27T08:00:01.292Z,53.82
2023-02-27T08:02:27.860Z,52.85
2023-02-27T08:04:54.394Z,53.18
2023-02-27T08:07:20.879Z,53.47
2023-02-27T08:09:47.292Z,53.57
2023-02-27T08:12:13.712Z,52.90
2023-02-27T08:14:40.129Z,52.67
2023-02-27T08:17:06.642Z,51.95
2023-02-27T08:19:33.084Z,52.29
2023-02-27T08:21:59.556Z,51.79
2023-02-27T08:24:26.008Z,51.04
2023-02-27T08:26:52.562Z,51.59
2023-02-27T08:29:19.007Z,51.04
2023-02-27T08:31:46.863Z,50.33
2023-02-27T08:34:13.334Z,50.52
2023-02-27T08:36:39.813Z,50.74
2023-02-27T08:39:06.718Z,50.83
2023-02-27T08:41:33.503Z,49.90
2023-02-27T08:44:00.082Z,48.97
2023-02-27T08:46:27.146Z,48.86
2023-02-27T08:48:54.732Z,48.93
2023-02-27T08:51:21.399Z,47.35
2023-02-27T08:53:47.817Z,48.21
2023-02-27T08:56:14.447Z,47.49
2023-02-27T08:58:40.866Z,46.72
2023-02-27T09:01:07.352Z,46.75
2023-02-27T09:03:33.819Z,45.95
2023-02-27T09:06:00.340Z,44.49
2023-02-27T09:08:26.834Z,44.12
2023-02-27T09:10:56.020Z,43.83
2023-02-27T09:13:22.758Z,45.20
2023-02-27T09:15:49.165Z,44.88
2023-02-27T09:18:15.632Z,44.93
2023-02-27T09:20:42.077Z,45.63
2023-02-27T09:23:08.500Z,45.06
2023-02-27T09:25:35.064Z,45.53
2023-02-27T09:28:01.540Z,45.74
2023-02-27T09:30:28.079Z,45.19
2023-02-27T09:32:54.596Z,44.38
2023-02-27T09:35:21.095Z,43.74
2023-02-27T09:37:49.364Z,43.69
2023-02-27T09:40:19.808Z,44.34
2023-02-27T09:42:47.656Z,44.85
2023-02-27T09:45:20.109Z,44.46
2023-02-27T09:47:50.454Z,44.90
2023-02-27T09:50:37.123Z,44.38
2023-02-27T09:53:04.719Z,43.18
2023-02-27T09:55:33.522Z,42.35
2023-02-27T09:58:14.576Z,42.34
2023-02-27T10:00:45.841Z,42.80
2023-02-27T10:03:22.174Z,41.94
2023-02-27T10:05:54.692Z,42.34
2023-02-27T10:08:21.030Z,41.08
2023-02-27T10:11:01.053Z,40.83
2023-02-27T10:13:35.094Z,40.15
2023-02-27T10:16:01.629Z,41.99
2023-02-27T10:18:35.354Z,41.07
2023-02-27T10:21:10.461Z,39.98
2023-02-27T10:23:36.889Z,40.19
2023-02-27T10:26:03.962Z,39.44
2023-02-27T10:28:30.493Z,39.93
2023-02-27T10:30:59.229Z,39.11
2023-02-27T10:33:38.908Z,38.86
2023-02-27T10:36:15.773Z,37.80
2023-02-27T10:38:50.147Z,39.90
2023-02-27T10:41:17.308Z,38.84
2023-02-27T10:43:43.838Z,39.36
2023-02-27T10:46:16.331Z,39.91
2023-02-27T10:48:42.842Z,38.16
2023-02-27T10:51:21.700Z,38.65
2023-02-27T10:53:48.161Z,37.48
2023-02-27T10:56:15.746Z,38.62
2023-02-27T10:58:42.157Z,38.74
2023-02-27T11:01:09.980Z,38.51
2023-02-27T11:03:41.337Z,37.47
2023-02-27T11:06:34.607Z,36.56
2023-02-27T11:09:09.846Z,37.28
2023-02-27T11:11:36.254Z,37.06
2023-02-27T11:14:15.432Z,36.99
2023-02-27T11:16:46.354Z,36.66
2023-02-27T11:19:23.818Z,34.95
2023-02-27T11:22:00.815Z,33.97
2023-02-27T11:24:28.985Z,34.89
2023-02-27T11:26:57.661Z,34.83
2023-02-27T11:29:24.139Z,36.63
2023-02-27T11:32:00.817Z,36.24
2023-02-27T11:34:28.563Z,34.39
2023-02-27T11:36:56.678Z,35.86
2023-02-27T11:39:37.605Z,36.01
2023-02-27T11:42:09.541Z,34.48
2023-02-27T11:44:43.243Z,34.91
2023-02-27T11:47:22.383Z,34.18
2023-02-27T11:50:08.846Z,34.89
2023-02-27T11:52:38.179Z,34.44
2023-02-27T11:55:04.793Z,32.66
2023-02-27T11:57:32.642Z,34.30
2023-02-27T12:00:01.554Z,35.88
2023-02-27T12:02:36.655Z,36.59
2023-02-27T12:05:04.891Z,35.04
2023-02-27T12:07:33.954Z,37.87
2023-02-27T12:10:05.597Z,36.57
2023-02-27T12:12:33.992Z,37.08
2023-02-27T12:15:06.228Z,35.89
2023-02-27T12:17:38.823Z,37.54
2023-02-27T12:20:09.771Z,37.72
2023-02-27T12:22:38.601Z,38.96
2023-02-27T12:25:08.481Z,37.26
2023-02-27T12:27:43.847Z,39.01
2023-02-27T12:30:15.300Z,37.49
2023-02-27T12:32:54.974Z,38.88
2023-02-27T12:35:26.826Z,39.09
2023-02-27T12:37:53.289Z,38.47
2023-02-27T12:40:20.737Z,37.71
2023-02-27T12:42:52.990Z,39.15
2023-02-27T12:45:38.129Z,37.98
2023-02-27T12:48:04.971Z,39.74
2023-02-27T12:50:41.651Z,39.85
2023-02-27T12:53:29.686Z,39.67
2023-02-27T12:55:58.205Z,40.89
2023-02-27T12:58:25.465Z,39.31
2023-02-27T13:01:10.630Z,39.13
2023-02-27T13:03:37.125Z,39.18
2023-02-27T13:06:15.273Z,39.45
2023-02-27T13:08:44.860Z,38.23
2023-02-27T13:11:14.467Z,39.32
2023-02-27T13:13:40.834Z,40.23
2023-02-27T13:16:11.498Z,38.79
2023-02-27T13:18:45.877Z,38.98
2023-02-27T13:21:24.692Z,39.19
2023-02-27T13:23:58.455Z,39.01
2023-02-27T13:26:34.409Z,39.33
2023-02-27T13:29:03.414Z,40.78
2023-02-27T13:32:00.148Z,39.19
2023-02-27T13:34:43.663Z,39.61
2023-02-27T13:37:10.188Z,39.68
2023-02-27T13:39:45.943Z,40.47
2023-02-27T13:42:28.094Z,39.26
2023-02-27T13:44:54.559Z,39.97
2023-02-27T13:47:30.037Z,39.56
2023-02-27T13:49:57.057Z,39.66
2023-02-27T13:52:32.969Z,38.72
2023-02-27T13:55:06.237Z,37.10
2023-02-27T13:57:38.205Z,38.58
2023-02-27T14:00:06.036Z,38.13
2023-02-27T14:03:00.481Z,38.21
2023-02-27T14:05:37.624Z,38.92
2023-02-27T14:08:07.009Z,38.36
2023-02-27T14:10:33.513Z,38.16
2023-02-27T14:13:00.237Z,37.86
2023-02-27T14:15:33.872Z,38.24
2023-02-27T14:18:13.849Z,39.00
2023-02-27T14:20:50.052Z,38.16
2023-02-27T14:23:26.260Z,38.31
2023-02-27T14:25:57.041Z,37.23
2023-02-27T14:28:30.746Z,37.65
2023-02-27T14:31:05.818Z,38.75
2023-02-27T14:33:41.054Z,38.60
2023-02-27T14:36:26.699Z,40.40
2023-02-27T14:38:53.720Z,38.59
2023-02-27T14:41:39.592Z,39.03
2023-02-27T14:44:06.086Z,39.15
2023-02-27T14:46:38.678Z,38.42
2023-02-27T14:49:16.732Z,41.10
2023-02-27T14:51:43.437Z,40.02
2023-02-27T14:54:13.072Z,38.31
2023-02-27T14:56:39.894Z,39.02
2023-02-27T14:59:20.969Z,39.53
2023-02-27T15:01:47.424Z,39.58
2023-02-27T15:04:14.899Z,38.79
2023-02-27T15:06:44.322Z,40.03
2023-02-27T15:09:30.981Z,39.47
2023-02-27T15:12:03.882Z,39.02
2023-02-27T15:14:32.204Z,38.14
2023-02-27T15:16:58.648Z,38.47
2023-02-27T15:19:28.788Z,38.42
2023-02-27T15:21:58.541Z,38.72
2023-02-27T15:24:40.657Z,40.24
2023-02-27T15:27:16.282Z,39.00
2023-02-27T15:29:46.263Z,39.25
2023-02-27T15:32:14.636Z,40.17
2023-02-27T15:34:42.485Z,39.52
2023-02-27T15:37:22.879Z,39.58
2023-02-27T15:39:49.993Z,39.98
2023-02-27T15:42:16.784Z,39.55
2023-02-27T15:44:44.596Z,39.67
2023-02-27T15:47:12.875Z,38.80
2023-02-27T15:49:40.765Z,38.92
2023-02-27T15:52:30.469Z,40.02
2023-02-27T15:55:01.220Z,39.10
2023-02-27T15:57:27.689Z,37.62
2023-02-27T15:59:54.825Z,39.82
2023-02-27T16:02:26.615Z,39.20
2023-02-27T16:04:53.070Z,40.16
2023-02-27T16:07:20.696Z,38.03
2023-02-27T16:09:57.158Z,39.62
2023-02-27T16:12:27.615Z,39.48
2023-02-27T16:15:08.774Z,40.45
2023-02-27T16:17:35.227Z,38.80
2023-02-27T16:20:02.521Z,39.20
2023-02-27T16:22:30.494Z,39.78
2023-02-27T16:25:07.843Z,39.67
2023-02-27T16:27:34.373Z,40.14
2023-02-27T16:30:02.664Z,39.58
2023-02-27T16:32:30.464Z,39.19
2023-02-27T16:35:01.648Z,40.38
2023-02-27T16:37:35.057Z,39.25
2023-02-27T16:40:01.806Z,37.67
2023-02-27T16:42:28.281Z,40.03
2023-02-27T16:44:54.736Z,39.84
2023-02-27T16:47:22.820Z,38.58
2023-02-27T16:49:49.478Z,37.84
2023-02-27T16:52:15.968Z,39.62
2023-02-27T16:54:42.459Z,38.54
2023-02-27T16:57:09.614Z,38.86
2023-02-27T16:59:39.089Z,38.72
2023-02-27T17:02:06.914Z,38.72
2023-02-27T17:04:33.732Z,40.56
2023-02-27T17:07:00.715Z,38.84
2023-02-27T17:09:28.440Z,38.87
2023-02-27T17:11:55.259Z,39.92
2023-02-27T17:14:22.167Z,39.10
2023-02-27T17:16:49.160Z,39.55
2023-02-27T17:19:15.808Z,39.62
2023-02-27T17:21:45.850Z,39.97
2023-02-27T17:24:12.287Z,38.80
2023-02-27T17:26:38.785Z,39.65
2023-02-27T17:29:06.389Z,40.57
2023-02-27T17:31:33.018Z,39.51
2023-02-27T17:34:03.651Z,40.36
2023-02-27T17:36:32.832Z,39.88
2023-02-27T17:39:00.753Z,38.60
2023-02-27T17:41:30.935Z,40.51
2023-02-27T17:43:58.066Z,38.90
2023-02-27T17:46:26.154Z,39.96
2023-02-27T17:48:54.089Z,40.09
2023-02-27T17:51:20.591Z,40.89
2023-02-27T17:53:47.028Z,40.98
2023-02-27T17:56:13.855Z,38.71
2023-02-27T17:58:40.616Z,40.56
2023-02-27T18:01:08.021Z,41.09
2023-02-27T18:03:34.593Z,40.14
2023-02-27T18:06:01.310Z,40.46
2023-02-27T18:08:28.893Z,40.70
2023-02-27T18:10:55.669Z,40.72
2023-02-27T18:13:22.098Z,40.17
2023-02-27T18:15:49.640Z,40.64
2023-02-27T18:18:16.088Z,40.20
2023-02-27T18:20:42.556Z,40.34
2023-02-27T18:23:09.390Z,40.74
2023-02-27T18:25:36.672Z,41.98
2023-02-27T18:28:04.246Z,41.22
2023-02-27T18:30:31.470Z,40.85
2023-02-27T18:32:58.138Z,40.75
2023-02-27T18:35:25.019Z,41.77
2023-02-27T18:37:51.698Z,42.05
2023-02-27T18:40:18.380Z,41.26
2023-02-27T18:42:47.741Z,42.68
2023-02-27T18:45:14.472Z,40.68
2023-02-27T18:47:40.990Z,43.12
2023-02-27T18:50:07.575Z,42.49
2023-02-27T18:52:36.886Z,43.05
2023-02-27T18:55:03.887Z,43.03
2023-02-27T18:57:30.313Z,42.46
2023-02-27T18:59:56.810Z,41.89
2023-02-27T19:02:23.680Z,42.96
2023-02-27T19:04:50.150Z,42.42
2023-02-27T19:07:16.853Z,41.27
2023-02-27T19:09:43.593Z,42.32
2023-02-27T19:12:10.915Z,40.02
2023-02-27T19:14:37.986Z,41.07
2023-02-27T19:17:04.665Z,40.39
2023-02-27T19:19:31.093Z,41.54
2023-02-27T19:21:57.532Z,42.46
2023-02-27T19:24:24.138Z,42.79
2023-02-27T19:26:52.474Z,42.14
2023-02-27T19:29:19.876Z,40.97
2023-02-27T19:31:46.467Z,43.22
2023-02-27T19:34:14.789Z,41.29
2023-02-27T19:36:41.577Z,40.28
2023-02-27T19:39:08.061Z,40.07
2023-02-27T19:41:34.489Z,41.23
2023-02-27T19:44:00.995Z,41.96
2023-02-27T19:46:29.286Z,39.77
2023-02-27T19:48:57.316Z,42.64
2023-02-27T19:51:24.067Z,42.12
2023-02-27T19:53:50.590Z,40.88
2023-02-27T19:56:18.601Z,41.00
2023-02-27T19:58:45.406Z,41.04
2023-02-27T20:01:12.441Z,42.29
2023-02-27T20:03:43.465Z,41.73
2023-02-27T20:06:17.506Z,42.05
2023-02-27T20:08:43.941Z,42.04
2023-02-27T20:11:10.561Z,41.19
2023-02-27T20:13:36.977Z,42.55
2023-02-27T20:16:05.297Z,42.19
2023-02-27T20:18:31.988Z,43.10
2023-02-27T20:20:59.333Z,41.45
2023-02-27T20:23:25.788Z,42.63
2023-02-27T20:25:52.209Z,42.85
2023-02-27T20:28:18.603Z,41.15
2023-02-27T20:30:45.006Z,41.57
2023-02-27T20:33:11.497Z,41.57
2023-02-27T20:35:38.274Z,41.80
2023-02-27T20:38:06.318Z,42.77
2023-02-27T20:40:33.117Z,42.57
2023-02-27T20:42:59.537Z,42.39
2023-02-27T20:45:26.080Z,42.53
2023-02-27T20:47:52.529Z,42.53
2023-02-27T20:50:18.970Z,42.27
2023-02-27T20:52:45.435Z,42.69
2023-02-27T20:55:11.890Z,42.75
2023-02-27T20:57:38.300Z,43.01
2023-02-27T21:00:05.437Z,42.84
2023-02-27T21:02:31.849Z,42.65
2023-02-27T21:04:58.826Z,42.69
2023-02-27T21:07:25.484Z,42.33
2023-02-27T21:09:51.981Z,43.49
2023-02-27T21:12:18.461Z,41.98
2023-02-27T21:14:45.277Z,42.64
2023-02-27T21:17:11.911Z,42.90
2023-02-27T21:19:39.898Z,41.86
2023-02-27T21:22:10.865Z,41.97
2023-02-27T21:24:37.487Z,42.26
2023-02-27T21:27:03.984Z,42.95
2023-02-27T21:29:30.403Z,42.56
2023-02-27T21:31:56.872Z,42.86
2023-02-27T21:34:24.793Z,43.23
2023-02-27T21:36:52.353Z,42.29
2023-02-27T21:39:22.866Z,42.67
2023-02-27T21:41:49.677Z,42.96
2023-02-27T21:44:17.320Z,43.49
2023-02-27T21:46:44.024Z,43.01
2023-02-27T21:49:17.476Z,43.88
2023-02-27T21:51:44.148Z,44.10
2023-02-27T21:54:11.799Z,42.29
2023-02-27T21:56:39.240Z,42.02
2023-02-27T21:59:05.846Z,42.69
2023-02-27T22:01:32.764Z,42.33
2023-02-27T22:03:59.368Z,43.35
2023-02-27T22:06:26.846Z,43.17
2023-02-27T22:08:56.622Z,43.11
2023-02-27T22:11:23.580Z,42.86
2023-02-27T22:13:50.013Z,43.76
2023-02-27T22:16:16.591Z,43.79
2023-02-27T22:18:43.042Z,44.87
2023-02-27T22:21:10.686Z,43.72
2023-02-27T22:23:37.981Z,43.69
2023-02-27T22:26:08.777Z,44.67
2023-02-27T22:28:35.350Z,43.96
2023-02-27T22:31:05.712Z,44.55
2023-02-27T22:33:32.180Z,45.60
2023-02-27T22:35:58.761Z,45.03
2023-02-27T22:38:25.330Z,45.83
2023-02-27T22:40:51.783Z,45.24
2023-02-27T22:43:18.465Z,44.94
2023-02-27T22:45:45.736Z,45.30
2023-02-27T22:48:12.172Z,45.73
2023-02-27T22:50:38.578Z,45.66
2023-02-27T22:53:05.060Z,45.75
2023-02-27T22:55:31.543Z,44.79
2023-02-27T22:57:58.187Z,45.69
2023-02-27T23:00:24.635Z,45.47
2023-02-27T23:02:51.076Z,45.50
2023-02-27T23:05:17.513Z,46.22
2023-02-27T23:07:44.015Z,46.13
2023-02-27T23:10:12.195Z,46.95
2023-02-27T23:12:38.705Z,46.63
2023-02-27T23:15:05.411Z,46.17
2023-02-27T23:17:33.036Z,46.04
2023-02-27T23:19:59.700Z,46.14
2023-02-27T23:22:26.145Z,45.86
2023-02-27T23:24:52.618Z,46.40
2023-02-27T23:27:25.823Z,46.01
2023-02-27T23:29:52.815Z,45.78
2023-02-27T23:32:19.790Z,45.54
2023-02-27T23:34:55.562Z,47.08
2023-02-27T23:37:22.025Z,46.61
2023-02-27T23:39:48.453Z,45.99
2023-02-27T23:42:15.753Z,46.95
2023-02-27T23:45:00.989Z,46.77
2023-02-27T23:47:45.776Z,47.11
2023-02-27T23:50:13.117Z,46.36
2023-02-27T23:52:39.615Z,47.48
2023-02-27T23:55:06.308Z,47.08
2023-02-27T23:57:32.773Z,48.13
2023-02-27T23:59:59.210Z,47.57
